createdAt,value
2024-02-24T00:01:07.441Z,3.87
2024-02-24T00:03:35.720Z,3.87
2024-02-24T00:06:03.551Z,3.85
2024-02-24T00:08:31.776Z,3.81
2024-02-24T00:10:59.936Z,3.81
2024-02-24T00:13:27.814Z,3.79
2024-02-24T00:15:55.591Z,3.78
2024-02-24T00:18:25.050Z,3.72
2024-02-24T00:20:53.396Z,3.73
2024-02-24T00:23:21.206Z,3.75
2024-02-24T00:25:48.933Z,3.69
2024-02-24T00:28:17.093Z,3.67
2024-02-24T00:30:44.871Z,3.66
2024-02-24T00:33:12.863Z,3.59
2024-02-24T00:35:42.693Z,3.56
2024-02-24T00:38:10.500Z,3.48
2024-02-24T00:40:38.543Z,3.40
2024-02-24T00:43:06.246Z,3.35
2024-02-24T00:45:33.985Z,3.29
2024-02-24T00:48:01.719Z,3.26
2024-02-24T00:50:30.782Z,3.26
2024-02-24T00:53:00.067Z,3.24
2024-02-24T00:55:28.633Z,3.27
2024-02-24T00:57:56.825Z,3.22
2024-02-24T01:00:24.895Z,3.14
2024-02-24T01:02:52.670Z,2.99
2024-02-24T01:05:20.969Z,3.03
2024-02-24T01:07:49.101Z,3.05
2024-02-24T01:10:18.304Z,3.04
2024-02-24T01:12:46.520Z,3.06
2024-02-24T01:15:14.771Z,3.05
2024-02-24T01:17:42.691Z,2.97
2024-02-24T01:20:12.085Z,2.96
2024-02-24T01:22:39.885Z,2.99
2024-02-24T01:25:08.934Z,2.94
2024-02-24T01:27:38.134Z,2.93
2024-02-24T01:30:06.479Z,2.86
2024-02-24T01:32:34.643Z,2.87
2024-02-24T01:35:03.702Z,2.91
2024-02-24T01:37:31.548Z,2.83
2024-02-24T01:39:59.298Z,2.76
2024-02-24T01:42:27.425Z,2.72
2024-02-24T01:44:56.536Z,2.68
2024-02-24T01:47:25.345Z,2.69
2024-02-24T01:49:55.228Z,2.64
2024-02-24T01:52:23.094Z,2.47
2024-02-24T01:54:51.576Z,2.37
2024-02-24T01:57:20.043Z,2.41
2024-02-24T01:59:48.232Z,2.42
2024-02-24T02:02:18.023Z,2.44
2024-02-24T02:04:46.849Z,2.44
2024-02-24T02:07:15.021Z,2.48
2024-02-24T02:09:55.693Z,2.52
2024-02-24T02:12:23.630Z,2.62
2024-02-24T02:14:51.850Z,2.64
2024-02-24T02:17:21.973Z,2.61
2024-02-24T02:19:50.688Z,2.63
2024-02-24T02:22:20.660Z,2.63
2024-02-24T02:24:50.987Z,2.69
2024-02-24T02:27:19.169Z,2.74
2024-02-24T02:29:46.970Z,2.63
2024-02-24T02:32:14.820Z,2.60
2024-02-24T02:34:43.027Z,2.60
2024-02-24T02:37:10.771Z,2.64
2024-02-24T02:39:38.492Z,2.64
2024-02-24T02:42:08.388Z,2.67
2024-02-24T02:44:36.572Z,2.69
2024-02-24T02:47:11.437Z,2.70
2024-02-24T02:49:45.604Z,2.68
2024-02-24T02:52:13.533Z,2.66
2024-02-24T02:54:41.634Z,2.65
2024-02-24T02:57:11.053Z,2.65
2024-02-24T02:59:38.805Z,2.57
2024-02-24T03:02:07.121Z,2.56
2024-02-24T03:04:35.448Z,2.53
2024-02-24T03:07:03.203Z,2.46
2024-02-24T03:09:30.905Z,2.41
2024-02-24T03:11:59.021Z,2.41
2024-02-24T03:14:28.767Z,2.41
2024-02-24T03:16:56.618Z,2.44
2024-02-24T03:19:24.876Z,2.52
2024-02-24T03:21:52.679Z,2.51
2024-02-24T03:24:20.405Z,2.53
2024-02-24T03:26:48.752Z,2.51
2024-02-24T03:29:16.492Z,2.47
2024-02-24T03:31:45.580Z,2.46
2024-02-24T03:34:13.764Z,2.42
2024-02-24T03:36:42.433Z,2.51
2024-02-24T03:39:09.496Z,2.59
2024-02-24T03:41:37.254Z,2.64
2024-02-24T03:44:05.311Z,2.64
2024-02-24T03:46:33.104Z,2.67
2024-02-24T03:49:02.925Z,2.63
2024-02-24T03:51:31.190Z,2.60
2024-02-24T03:53:58.991Z,2.58
2024-02-24T03:56:27.256Z,2.56
2024-02-24T03:58:54.988Z,2.43
2024-02-24T04:01:23.074Z,2.42
2024-02-24T04:03:50.869Z,2.47
2024-02-24T04:06:20.099Z,2.48
2024-02-24T04:08:48.263Z,2.44
2024-02-24T04:11:16.233Z,2.31
2024-02-24T04:13:44.088Z,2.32
2024-02-24T04:16:12.320Z,2.32
2024-02-24T04:18:40.140Z,2.30
2024-02-24T04:21:08.347Z,2.27
2024-02-24T04:23:37.595Z,2.14
2024-02-24T04:26:05.732Z,2.07
2024-02-24T04:28:34.040Z,1.98
2024-02-24T04:31:01.832Z,1.92
2024-02-24T04:33:30.067Z,1.79
2024-02-24T04:35:58.287Z,1.75
2024-02-24T04:38:26.093Z,1.66
2024-02-24T04:40:55.166Z,1.63
2024-02-24T04:43:23.302Z,1.73
2024-02-24T04:45:51.457Z,1.75
2024-02-24T04:48:19.314Z,1.77
2024-02-24T04:50:47.566Z,1.76
2024-02-24T04:53:15.691Z,1.83
2024-02-24T04:55:43.657Z,1.81
2024-02-24T04:58:12.701Z,1.82
2024-02-24T05:00:40.612Z,1.78
2024-02-24T05:03:08.343Z,1.76
2024-02-24T05:05:36.436Z,1.66
2024-02-24T05:08:04.348Z,1.61
2024-02-24T05:10:32.146Z,1.47
2024-02-24T05:13:02.110Z,1.52
2024-02-24T05:15:32.009Z,1.49
2024-02-24T05:17:59.899Z,1.50
2024-02-24T05:20:27.702Z,1.58
2024-02-24T05:22:55.820Z,1.68
2024-02-24T05:25:23.554Z,1.77
2024-02-24T05:27:51.301Z,1.79
2024-02-24T05:30:19.425Z,1.81
2024-02-24T05:32:48.555Z,1.71
2024-02-24T05:35:16.805Z,1.66
2024-02-24T05:37:45.042Z,1.67
2024-02-24T05:40:14.375Z,1.63
2024-02-24T05:42:43.548Z,1.56
2024-02-24T05:45:12.042Z,1.57
2024-02-24T05:47:39.795Z,1.65
2024-02-24T05:50:09.421Z,1.64
2024-02-24T05:52:38.017Z,1.62
2024-02-24T05:55:06.951Z,1.53
2024-02-24T05:57:35.332Z,1.45
2024-02-24T06:00:03.913Z,1.50
2024-02-24T06:02:32.247Z,1.55
2024-02-24T06:05:00.196Z,1.57
2024-02-24T06:07:29.869Z,1.51
2024-02-24T06:09:58.096Z,1.56
2024-02-24T06:12:25.932Z,1.46
2024-02-24T06:14:53.793Z,1.45
2024-02-24T06:17:21.702Z,1.45
2024-02-24T06:19:49.596Z,1.45
2024-02-24T06:22:17.927Z,1.43
2024-02-24T06:24:47.598Z,1.39
2024-02-24T06:27:15.802Z,1.40
2024-02-24T06:29:45.059Z,1.38
2024-02-24T06:32:13.067Z,1.40
2024-02-24T06:34:44.662Z,1.34
2024-02-24T06:37:12.674Z,1.36
2024-02-24T06:39:41.137Z,1.36
2024-02-24T06:42:10.708Z,1.40
2024-02-24T06:44:39.041Z,1.42
2024-02-24T06:47:17.893Z,1.46
2024-02-24T06:49:53.372Z,1.59
2024-02-24T06:52:21.164Z,1.65
2024-02-24T06:54:49.248Z,1.62
2024-02-24T06:57:18.352Z,1.60
2024-02-24T06:59:46.493Z,1.59
2024-02-24T07:02:14.718Z,1.61
2024-02-24T07:04:43.000Z,1.69
2024-02-24T07:07:11.363Z,1.72
2024-02-24T07:09:39.384Z,1.82
2024-02-24T07:12:08.545Z,1.89
2024-02-24T07:14:38.040Z,1.99
2024-02-24T07:17:06.367Z,2.10
2024-02-24T07:19:34.188Z,2.19
2024-02-24T07:22:02.661Z,2.14
2024-02-24T07:24:30.928Z,2.21
2024-02-24T07:26:59.132Z,2.29
2024-02-24T07:29:27.267Z,2.40
2024-02-24T07:31:56.325Z,2.44
2024-02-24T07:34:24.367Z,2.46
2024-02-24T07:36:52.699Z,2.55
2024-02-24T07:39:20.758Z,2.61
2024-02-24T07:41:49.109Z,2.60
2024-02-24T07:44:18.400Z,2.65
2024-02-24T07:46:47.575Z,2.66
2024-02-24T07:49:16.852Z,2.72
2024-02-24T07:51:45.557Z,2.84
2024-02-24T07:54:13.833Z,3.03
2024-02-24T07:56:42.111Z,3.25
2024-02-24T07:59:09.983Z,3.37
2024-02-24T08:01:38.200Z,3.38
2024-02-24T08:04:06.143Z,3.40
2024-02-24T08:06:35.662Z,3.53
2024-02-24T08:09:03.492Z,3.61
2024-02-24T08:11:38.760Z,3.87
2024-02-24T08:14:06.572Z,3.88
2024-02-24T08:16:34.485Z,3.93
2024-02-24T08:19:03.270Z,4.00
2024-02-24T08:21:32.934Z,4.16
2024-02-24T08:24:07.367Z,4.40
2024-02-24T08:26:36.184Z,4.36
2024-02-24T08:29:04.391Z,4.51
2024-02-24T08:31:32.077Z,4.58
2024-02-24T08:33:59.980Z,4.64
2024-02-24T08:36:28.324Z,4.76
2024-02-24T08:38:57.974Z,4.85
2024-02-24T08:41:27.677Z,4.85
2024-02-24T08:43:55.430Z,4.94
2024-02-24T08:46:23.506Z,5.04
2024-02-24T08:48:51.222Z,5.25
2024-02-24T08:51:18.961Z,5.30
2024-02-24T08:53:46.843Z,5.48
2024-02-24T08:56:15.339Z,5.62
2024-02-24T08:58:44.458Z,5.73
2024-02-24T09:01:13.397Z,5.73
2024-02-24T09:03:41.794Z,5.85
2024-02-24T09:06:09.880Z,6.04
2024-02-24T09:08:39.758Z,6.11
2024-02-24T09:11:07.872Z,6.30
2024-02-24T09:13:35.995Z,6.32
2024-02-24T09:16:06.063Z,6.45
2024-02-24T09:18:34.325Z,6.56
2024-02-24T09:21:02.178Z,6.81
2024-02-24T09:23:30.353Z,7.06
2024-02-24T09:25:58.255Z,7.28
2024-02-24T09:28:25.942Z,7.52
2024-02-24T09:30:53.648Z,7.57
2024-02-24T09:33:23.172Z,7.71
2024-02-24T09:35:51.472Z,7.95
2024-02-24T09:38:19.217Z,8.19
2024-02-24T09:40:46.939Z,8.26
2024-02-24T09:43:15.513Z,8.37
2024-02-24T09:45:47.936Z,8.56
2024-02-24T09:48:16.490Z,8.57
2024-02-24T09:50:45.934Z,8.70
2024-02-24T09:53:13.778Z,8.83
2024-02-24T09:55:42.018Z,8.94
2024-02-24T09:58:13.945Z,9.01
2024-02-24T10:00:42.734Z,9.12
2024-02-24T10:03:11.438Z,9.42
2024-02-24T10:05:42.315Z,9.50
2024-02-24T10:08:12.862Z,9.56
2024-02-24T10:10:40.463Z,9.43
2024-02-24T10:13:08.687Z,9.52
2024-02-24T10:15:36.871Z,9.48
2024-02-24T10:18:06.275Z,9.66
2024-02-24T10:20:34.160Z,9.57
2024-02-24T10:23:02.407Z,9.55
2024-02-24T10:25:31.541Z,9.67
2024-02-24T10:28:00.552Z,9.60
2024-02-24T10:30:30.122Z,9.68
2024-02-24T10:33:00.969Z,9.59
2024-02-24T10:35:29.140Z,9.64
2024-02-24T10:38:11.390Z,9.65
2024-02-24T10:40:47.352Z,9.73
2024-02-24T10:43:16.606Z,9.85
2024-02-24T10:45:44.558Z,9.87
2024-02-24T10:48:12.866Z,10.00
2024-02-24T10:50:41.652Z,9.94
2024-02-24T10:53:11.659Z,9.98
2024-02-24T10:55:41.578Z,10.09
2024-02-24T10:58:11.607Z,10.21
2024-02-24T11:00:45.939Z,10.30
2024-02-24T11:03:15.013Z,10.26
2024-02-24T11:05:48.092Z,10.22
2024-02-24T11:08:37.319Z,10.19
2024-02-24T11:11:06.759Z,10.11
2024-02-24T11:13:36.117Z,10.09
2024-02-24T11:16:06.770Z,10.07
2024-02-24T11:18:56.841Z,10.02
2024-02-24T11:21:58.058Z,9.89
2024-02-24T11:24:31.886Z,9.64
2024-02-24T11:27:00.049Z,9.54
2024-02-24T11:29:30.527Z,9.41
2024-02-24T11:32:14.290Z,9.51
2024-02-24T11:34:45.305Z,9.48
2024-02-24T11:37:17.101Z,9.49
2024-02-24T11:39:45.832Z,9.57
2024-02-24T11:42:15.138Z,9.61
2024-02-24T11:44:49.048Z,9.64
2024-02-24T11:47:20.456Z,9.67
2024-02-24T11:49:50.119Z,9.55
2024-02-24T11:52:18.713Z,9.60
2024-02-24T11:54:47.173Z,9.74
2024-02-24T11:57:15.419Z,9.46
2024-02-24T11:59:43.564Z,9.36
2024-02-24T12:02:15.895Z,9.38
2024-02-24T12:04:43.749Z,9.27
2024-02-24T12:07:11.983Z,9.24
2024-02-24T12:09:39.868Z,9.16
2024-02-24T12:12:08.934Z,9.24
2024-02-24T12:14:37.249Z,9.35
2024-02-24T12:17:06.205Z,9.56
2024-02-24T12:19:38.950Z,9.80
2024-02-24T12:22:10.564Z,9.95
2024-02-24T12:24:39.970Z,10.04
2024-02-24T12:27:10.903Z,10.02
2024-02-24T12:29:39.905Z,10.08
2024-02-24T12:32:08.816Z,10.07
2024-02-24T12:34:38.699Z,10.13
2024-02-24T12:37:08.704Z,10.31
2024-02-24T12:39:42.370Z,10.41
2024-02-24T12:42:10.193Z,10.43
2024-02-24T12:44:38.235Z,10.57
2024-02-24T12:47:07.034Z,10.52
2024-02-24T12:49:34.963Z,10.52
2024-02-24T12:52:05.593Z,10.50
2024-02-24T12:54:33.302Z,10.47
2024-02-24T12:57:01.076Z,10.47
2024-02-24T12:59:30.089Z,10.77
2024-02-24T13:01:59.980Z,10.89
2024-02-24T13:04:28.856Z,10.97
2024-02-24T13:06:56.873Z,11.03
2024-02-24T13:09:26.208Z,10.89
2024-02-24T13:11:56.940Z,10.82
2024-02-24T13:14:25.905Z,10.79
2024-02-24T13:16:53.799Z,10.58
2024-02-24T13:19:21.652Z,10.59
2024-02-24T13:21:49.721Z,10.48
2024-02-24T13:24:17.465Z,10.38
2024-02-24T13:26:46.630Z,10.40
2024-02-24T13:29:14.416Z,10.49
2024-02-24T13:31:43.093Z,10.43
2024-02-24T13:34:11.000Z,10.41
2024-02-24T13:36:39.242Z,10.44
2024-02-24T13:39:06.993Z,10.44
2024-02-24T13:41:36.044Z,10.46
2024-02-24T13:44:06.351Z,10.35
2024-02-24T13:46:34.292Z,10.22
2024-02-24T13:49:05.277Z,10.11
2024-02-24T13:51:33.607Z,10.00
2024-02-24T13:54:01.541Z,9.92
2024-02-24T13:56:29.762Z,9.85
2024-02-24T13:58:57.575Z,9.82
2024-02-24T14:01:26.994Z,9.87
2024-02-24T14:03:54.726Z,9.84
2024-02-24T14:06:24.819Z,9.83
2024-02-24T14:08:53.149Z,9.74
2024-02-24T14:11:21.037Z,9.74
2024-02-24T14:13:49.306Z,9.80
2024-02-24T14:16:17.757Z,9.88
2024-02-24T14:18:47.064Z,9.89
2024-02-24T14:21:15.402Z,9.84
2024-02-24T14:23:43.547Z,9.96
2024-02-24T14:26:11.336Z,10.00
2024-02-24T14:28:40.034Z,10.01
2024-02-24T14:31:07.749Z,9.99
2024-02-24T14:33:35.779Z,9.95
2024-02-24T14:36:05.716Z,9.89
2024-02-24T14:38:33.554Z,9.76
2024-02-24T14:41:02.225Z,9.74
2024-02-24T14:43:29.973Z,9.73
2024-02-24T14:45:57.673Z,9.71
2024-02-24T14:48:25.955Z,9.65
2024-02-24T14:50:54.185Z,9.53
2024-02-24T14:53:23.267Z,9.59
2024-02-24T14:55:50.932Z,9.63
2024-02-24T14:58:20.667Z,9.64
2024-02-24T15:00:48.719Z,9.62
2024-02-24T15:03:17.045Z,9.58
2024-02-24T15:05:45.071Z,10.02
2024-02-24T15:08:13.136Z,10.01
2024-02-24T15:10:42.202Z,10.03
2024-02-24T15:13:10.773Z,10.14
2024-02-24T15:15:39.923Z,10.55
2024-02-24T15:18:08.711Z,10.70
2024-02-24T15:20:36.892Z,10.89
2024-02-24T15:23:07.695Z,10.85
2024-02-24T15:25:35.792Z,10.85
2024-02-24T15:28:06.509Z,10.71
2024-02-24T15:30:34.675Z,10.72
2024-02-24T15:33:04.210Z,10.83
2024-02-24T15:35:32.350Z,10.92
2024-02-24T15:38:00.745Z,10.68
2024-02-24T15:40:32.466Z,10.60
2024-02-24T15:43:02.409Z,10.81
2024-02-24T15:45:31.976Z,10.55
2024-02-24T15:47:59.732Z,10.71
2024-02-24T15:50:27.665Z,10.93
2024-02-24T15:52:56.077Z,11.00
2024-02-24T15:55:24.099Z,10.52
2024-02-24T15:57:52.677Z,10.31
2024-02-24T16:00:22.081Z,10.11
2024-02-24T16:02:51.198Z,9.94
2024-02-24T16:05:19.595Z,10.10
2024-02-24T16:07:47.876Z,10.08
2024-02-24T16:10:16.410Z,9.99
2024-02-24T16:12:44.521Z,9.90
2024-02-24T16:15:13.176Z,9.69
2024-02-24T16:17:41.684Z,9.63
2024-02-24T16:20:11.629Z,9.56
2024-02-24T16:22:40.706Z,9.51
2024-02-24T16:25:08.974Z,9.48
2024-02-24T16:27:36.657Z,9.44
2024-02-24T16:30:05.050Z,9.30
2024-02-24T16:32:33.244Z,9.36
2024-02-24T16:35:01.516Z,9.22
2024-02-24T16:37:30.665Z,9.16
2024-02-24T16:39:58.762Z,9.13
2024-02-24T16:42:26.493Z,8.99
2024-02-24T16:44:55.331Z,8.93
2024-02-24T16:47:23.490Z,8.87
2024-02-24T16:49:51.334Z,8.97
2024-02-24T16:52:19.084Z,8.93
2024-02-24T16:54:48.498Z,8.96
2024-02-24T16:57:16.340Z,8.88
2024-02-24T16:59:44.056Z,8.78
2024-02-24T17:02:11.809Z,8.66
2024-02-24T17:04:41.101Z,8.64
2024-02-24T17:07:09.422Z,8.64
2024-02-24T17:09:37.600Z,8.60
2024-02-24T17:12:07.224Z,8.60
2024-02-24T17:14:37.182Z,8.55
2024-02-24T17:17:04.501Z,8.47
2024-02-24T17:19:32.403Z,8.47
2024-02-24T17:22:00.515Z,8.43
2024-02-24T17:24:28.845Z,8.34
2024-02-24T17:26:56.936Z,8.45
2024-02-24T17:29:26.552Z,8.38
2024-02-24T17:31:54.282Z,8.45
2024-02-24T17:34:22.617Z,8.32
2024-02-24T17:36:51.217Z,8.27
2024-02-24T17:39:21.121Z,8.37
2024-02-24T17:41:49.533Z,8.38
2024-02-24T17:44:17.344Z,8.36
2024-02-24T17:46:46.926Z,8.26
2024-02-24T17:49:14.964Z,8.15
2024-02-24T17:51:42.783Z,8.09
2024-02-24T17:54:10.914Z,8.12
2024-02-24T17:56:41.393Z,8.14
2024-02-24T17:59:09.494Z,8.21
2024-02-24T18:01:37.411Z,8.10
2024-02-24T18:04:06.943Z,8.04
2024-02-24T18:06:35.052Z,7.98
2024-02-24T18:09:03.242Z,7.99
2024-02-24T18:11:32.032Z,7.95
2024-02-24T18:14:00.424Z,7.95
2024-02-24T18:16:28.579Z,7.86
2024-02-24T18:18:56.809Z,7.92
2024-02-24T18:21:26.038Z,7.88
2024-02-24T18:23:54.199Z,7.79
2024-02-24T18:26:22.091Z,7.82
2024-02-24T18:28:49.787Z,7.73
2024-02-24T18:31:18.283Z,7.75
2024-02-24T18:33:46.089Z,7.85
2024-02-24T18:36:14.253Z,7.80
2024-02-24T18:38:43.522Z,7.69
2024-02-24T18:41:11.554Z,7.61
2024-02-24T18:43:39.608Z,7.62
2024-02-24T18:46:07.853Z,7.54
2024-02-24T18:48:35.960Z,7.47
2024-02-24T18:51:04.755Z,7.48
2024-02-24T18:53:34.614Z,7.56
2024-02-24T18:56:04.113Z,7.43
2024-02-24T18:58:32.558Z,7.50
2024-02-24T19:01:02.204Z,7.38
2024-02-24T19:03:30.699Z,7.38
2024-02-24T19:06:00.699Z,7.42
2024-02-24T19:08:29.140Z,7.42
2024-02-24T19:10:59.340Z,7.36
2024-02-24T19:13:28.680Z,7.35
2024-02-24T19:15:57.247Z,7.30
2024-02-24T19:18:25.482Z,7.23
2024-02-24T19:20:53.298Z,7.11
2024-02-24T19:23:21.702Z,7.11
2024-02-24T19:25:50.960Z,7.17
2024-02-24T19:28:18.763Z,7.14
2024-02-24T19:30:48.360Z,7.08
2024-02-24T19:33:16.244Z,7.08
2024-02-24T19:35:44.663Z,7.02
2024-02-24T19:38:13.601Z,7.01
2024-02-24T19:40:43.001Z,6.96
2024-02-24T19:43:10.942Z,6.96
2024-02-24T19:45:39.089Z,6.78
2024-02-24T19:48:09.510Z,6.74
2024-02-24T19:50:37.570Z,6.68
2024-02-24T19:53:05.744Z,6.64
2024-02-24T19:55:33.465Z,6.63
2024-02-24T19:58:02.563Z,6.52
2024-02-24T20:00:31.266Z,6.50
2024-02-24T20:02:59.046Z,6.40
2024-02-24T20:05:28.552Z,6.21
2024-02-24T20:07:58.078Z,6.03
2024-02-24T20:10:28.526Z,5.92
2024-02-24T20:12:57.486Z,5.77
2024-02-24T20:15:25.244Z,5.63
2024-02-24T20:17:53.444Z,5.57
2024-02-24T20:20:21.737Z,5.52
2024-02-24T20:22:50.847Z,5.48
2024-02-24T20:25:18.867Z,5.43
2024-02-24T20:27:46.567Z,5.49
2024-02-24T20:30:20.533Z,5.51
2024-02-24T20:32:53.296Z,5.55
2024-02-24T20:35:22.086Z,5.53
2024-02-24T20:37:51.658Z,5.52
2024-02-24T20:40:19.762Z,5.44
2024-02-24T20:42:47.441Z,5.36
2024-02-24T20:45:15.672Z,5.29
2024-02-24T20:47:43.514Z,5.26
2024-02-24T20:50:12.249Z,5.17
2024-02-24T20:52:41.088Z,5.06
2024-02-24T20:55:10.850Z,5.06
2024-02-24T20:57:39.000Z,5.07
2024-02-24T21:00:09.410Z,5.12
2024-02-24T21:02:38.132Z,5.09
2024-02-24T21:05:06.876Z,5.10
2024-02-24T21:07:34.996Z,5.08
2024-02-24T21:10:02.772Z,5.06
2024-02-24T21:12:32.239Z,5.12
2024-02-24T21:15:00.412Z,5.16
2024-02-24T21:17:28.368Z,5.18
2024-02-24T21:19:56.566Z,5.18
2024-02-24T21:22:24.734Z,5.12
2024-02-24T21:24:52.400Z,5.08
2024-02-24T21:27:20.140Z,5.05
2024-02-24T21:29:50.338Z,5.05
2024-02-24T21:32:18.188Z,5.04
2024-02-24T21:34:46.523Z,5.11
2024-02-24T21:37:15.484Z,5.11
2024-02-24T21:39:43.215Z,5.05
2024-02-24T21:42:11.472Z,5.07
2024-02-24T21:44:39.270Z,5.08
2024-02-24T21:47:08.572Z,5.07
2024-02-24T21:49:36.827Z,5.05
2024-02-24T21:52:08.329Z,5.05
2024-02-24T21:54:36.330Z,5.00
2024-02-24T21:57:04.752Z,5.02
2024-02-24T21:59:32.935Z,5.03
2024-02-24T22:02:00.657Z,5.05
2024-02-24T22:04:29.744Z,4.92
2024-02-24T22:06:57.575Z,4.92
2024-02-24T22:09:25.347Z,4.82
2024-02-24T22:11:53.454Z,4.88
2024-02-24T22:14:22.576Z,4.89
2024-02-24T22:16:50.819Z,4.92
2024-02-24T22:19:19.078Z,4.96
2024-02-24T22:21:48.271Z,4.98
2024-02-24T22:24:16.015Z,4.98
2024-02-24T22:26:47.331Z,5.00
2024-02-24T22:29:15.460Z,4.97
2024-02-24T22:31:46.369Z,4.95
2024-02-24T22:34:14.272Z,4.92
2024-02-24T22:36:42.238Z,4.96
2024-02-24T22:39:11.843Z,4.96
2024-02-24T22:41:40.096Z,4.97
2024-02-24T22:44:08.774Z,4.96
2024-02-24T22:46:36.996Z,4.92
2024-02-24T22:49:05.010Z,4.84
2024-02-24T22:51:33.192Z,4.78
2024-02-24T22:54:01.387Z,4.76
2024-02-24T22:56:31.795Z,4.71
2024-02-24T22:59:01.999Z,4.71
2024-02-24T23:01:32.044Z,4.67
2024-02-24T23:04:01.891Z,4.70
2024-02-24T23:06:29.801Z,4.74
2024-02-24T23:08:58.170Z,4.67
2024-02-24T23:11:32.945Z,4.52
2024-02-24T23:14:05.787Z,4.50
2024-02-24T23:16:33.519Z,4.53
2024-02-24T23:19:01.685Z,4.49
2024-02-24T23:21:31.346Z,4.52
2024-02-24T23:23:59.444Z,4.42
2024-02-24T23:26:27.212Z,4.40
2024-02-24T23:28:54.961Z,4.35
2024-02-24T23:31:24.642Z,4.35
2024-02-24T23:33:52.894Z,4.38
2024-02-24T23:36:21.050Z,4.34
2024-02-24T23:38:48.847Z,4.37
2024-02-24T23:41:17.218Z,4.39
2024-02-24T23:43:45.284Z,4.32
2024-02-24T23:46:14.375Z,4.35
2024-02-24T23:48:45.508Z,4.30
2024-02-24T23:51:13.642Z,4.39
2024-02-24T23:53:41.892Z,4.35
2024-02-24T23:56:10.193Z,4.26
2024-02-24T23:58:37.994Z,4.27
